AirNav   Textron
 
 1693 users online  

63OH White's Airport
Darbyville, Ohio, USA

GOING TO DARBYVILLE?


FAA INFORMATION EFFECTIVE 20 JULY 2017

Location

FAA Identifier: 63OH
Lat/Long: 39-42-10.2230N / 083-05-38.0000W
39-42.170383N / 083-05.633333W
39.7028397 / -83.0938889
(estimated)
Elevation: 815 ft. / 248 m (estimated)
Variation: 05W (1990)
From city: 1 mile NE of DARBYVILLE, OH
Time zone: UTC -4 (UTC -5 during Standard Time)
Zip code: 43113

Airport Operations

Airport use: Private use. Permission required prior to landing
Activation date: 10/1994
Control tower: no
ARTCC: INDIANAPOLIS CENTER
FSS: DAYTON FLIGHT SERVICE STATION
Attendance: UNATNDD
Wind indicator: yes
Segmented circle: no

Airport Communications

WX AWOS-3 at LCK (10 nm NE): 132.750 (614-492-2441)
WX AWOS-3 at TZR (12 nm N): 135.925 (614-878-1722)
WX AWOS-3 at RZT (16 nm S): 119.225 (740-779-1364)
WX AWOS-3PT at I23 (17 nm SW): 118.775
WX ASOS at CMH (20 nm NE): 124.6 (614-338-4083)

Nearby radio navigation aids

VOR radial/distance  VOR name  Freq  Var
XUBr338/(11.8)YELLOW BUD VOR112.5005W
SGHr107/35.6SPRINGFIELD VOR/DME113.2004W
APEr227/35.6APPLETON VORTAC116.7006W
MXQr067/36.6MIDWEST VOR/DME112.9004W

 
NDB name  Hdg/Dist  Freq  Var  ID
COBBS242/4.225307WDD -.. -..
BOUTN149/8.723005WBU -... ..-
COURT HOUSE072/15.141406WCSS -.-. ... ...
WAVERLY353/33.038506WEOP . --- .--.
CLARK COUNTY112/33.234104WCCJ -.-. -.-. .---
NEWARK242/34.952406WHEH .... . ....
HILLSBORO039/37.427805WHOC .... --- -.-.

Airport Services

Runway Information

Runway 15/33

Dimensions: 2800 x 75 ft. / 853 x 23 m
Surface: turf
RUNWAY 15  RUNWAY 33
Traffic pattern: leftleft
Obstructions: none30 ft. plines, 600 ft. from runway

Airport Ownership and Management from official FAA records

Ownership: Privately-owned
Owner: SCOTT WHITE
8187 ST RT 316 WEST
ORIENT, OH 43146
Phone 740-983-3907
Manager: SCOTT WHITE
8187 ST RT 316 WEST
ORIENT, OH 43146
Phone 740-983-3907

Instrument Procedures

There are no published instrument procedures at 63OH.

Some nearby airports with instrument procedures:

KLCK - Rickenbacker International Airport (10 nm NE)
KTZR - Bolton Field Airport (12 nm N)
KCYO - Pickaway County Memorial Airport (12 nm SE)
KRZT - Ross County Airport (16 nm S)
I23 - Fayette County Airport (17 nm SW)
KCMH - John Glenn Columbus International Airport (20 nm NE)
 
Loc | Ops | Rwys | IFR | FBO | Links
Com | Nav | Svcs | Stats | Notes

City of Findlay
 
Area around 63OH (White's Airport)
 
Road maps at: MapQuest Bing Google
 
Aerial photo
No photo
 
Sectional chart

 
Airport distance calculator
Flying to White's Airport? Find the distance to fly.

From to 63OH

Sunrise and sunset
Times for 25-Jul-2017
 Local
(UTC-4)
 Zulu
(UTC)
Morning civil twilight05:5509:55
Sunrise06:2610:26
Sunset20:5200:52
Evening civil twilight21:2201:22

Current date and time
Zulu (UTC)  25-Jul-2017 19:19:52
Local (UTC-4)  25-Jul-2017 15:19:52
 
METAR
KLCK 
11nm NE 
251855Z AUTO 09003KT 10SM OVC037 23/15 A3020 RMK AO2 T02260148
KTZR 
11nm N 
251850Z 00000KT 10SM BKN036 24/16 A3021
KRZT 
16nm S 
251855Z AUTO 06005KT 10SM SCT030 22/14 A3020 RMK AO2
KLHQ 
20nm E 
251853Z AUTO 00000KT 10SM BKN034 23/16 A3021 RMK AO2 SLP228 T02280156
KCMH 
20nm NE 
251851Z 07008KT 10SM FEW037 BKN200 24/16 A3020 RMK AO2 SLP221 T02390156
TAF
KLCK 
11nm NE 
251140Z 2512/2612 02004KT P6SM SCT025 TEMPO 2513/2516 OVC025 FM251600 03006KT P6SM SCT035 FM260000 05003KT P6SM FEW250 FM261000 VRB02KT 4SM BR FEW250
NOTAMs
Click for the latest NOTAMs
NOTAMs are issued by the DoD/FAA and will open in a separate window not controlled by AirNav.

 

 
 

Would you like to see your business listed on this page?

 If your business provides an interesting product or service to pilots, flight crews, aircraft, or users of the White's Airport, you should consider listing it here.  To start the listing process, click on the button below
 
Add a business
 

Other Pages about White's Airport

Update a link
 
Copyright © AirNav, LLC. All rights reserved. Privacy Policy  Contact